METAR Data
IDs: Format: Raw Decoded Include TAF

Data at: 2119 UTC 24 Mar 2019

KGOP 242055Z AUTO 20009KT 160V220 10SM CLR 26/16 A3001 RMK AO2
KGOP 242035Z AUTO 21010KT 10SM FEW036 26/16 A3002 RMK AO2
KGOP 242015Z AUTO 18010G16KT 10SM FEW034 FEW110 25/16 A3003 RMK AO2
KGOP 241955Z AUTO 19010G16KT 10SM SCT033 SCT039 25/16 A3004 RMK AO2
KGOP 241935Z AUTO 20014KT 10SM BKN032 BKN039 BKN110 24/16 A3005 RMK AO2
KGOP 241915Z AUTO 19011KT 170V230 10SM BKN031 OVC040 24/16 A3005 RMK AO2
KGOP 241855Z AUTO 18006G13KT 10SM FEW031 BKN039 BKN065 24/16 A3006 RMK AO2
KGOP 241835Z AUTO 17008G16KT 10SM SCT031 SCT037 SCT065 24/16 A3007 RMK AO2
KGOP 241815Z AUTO 18011KT 10SM BKN030 24/16 A3007 RMK AO2
KGOP 241755Z AUTO 21008KT 10SM BKN029 23/16 A3008 RMK AO2
KGOP 241735Z AUTO 22008G14KT 10SM BKN028 BKN047 24/16 A3008 RMK AO2
KGOP 241715Z AUTO 17008G15KT 10SM BKN028 BKN095 23/16 A3009 RMK AO2
KGOP 241655Z AUTO 19009KT 160V220 10SM BKN026 23/16 A3009 RMK AO2
KGOP 241635Z AUTO 21009G15KT 10SM OVC025 23/16 A3009 RMK AO2
KGOP 241615Z AUTO 20010G16KT 10SM BKN025 22/16 A3009 RMK AO2
KGOP 241555Z AUTO 19011KT 10SM SCT026 SCT050 22/16 A3009 RMK AO2
KGOP 241535Z AUTO 18011KT 10SM FEW021 BKN025 BKN031 22/16 A3010 RMK AO2
KGOP 241515Z AUTO 19011G16KT 10SM SCT018 BKN025 BKN030 21/16 A3010 RMK AO2
KGOP 241455Z AUTO 18009KT 10SM SCT016 SCT020 BKN029 20/17 A3010 RMK AO2
KGOP 241435Z AUTO 18008KT 10SM FEW015 BKN028 20/17 A3010 RMK AO2
KGOP 241415Z AUTO 17007KT 10SM OVC025 19/17 A3009 RMK AO2
KGOP 241355Z AUTO 17006KT 10SM OVC024 19/17 A3009 RMK AO2
KGOP 241335Z AUTO 16006KT 10SM OVC025 19/17 A3008 RMK AO2
KGOP 241315Z AUTO 16005KT 10SM OVC025 18/17 A3008 RMK AO2
KGOP 241255Z AUTO 16006KT 10SM OVC025 18/17 A3007 RMK AO2
KGOP 241235Z AUTO 16006KT 10SM OVC024 18/17 A3007 RMK AO2
KGOP 241215Z AUTO 15005KT 10SM OVC026 17/17 A3006 RMK AO2
KGOP 241155Z AUTO 15005KT 10SM OVC027 17/16 A3006 RMK AO2
KGOP 241135Z AUTO 13005KT 10SM BKN026 18/16 A3006 RMK AO2
KGOP 241115Z AUTO 14008KT 10SM SCT026 17/16 A3005 RMK AO2
KGOP 241055Z AUTO 15006KT 10SM BKN028 18/16 A3004 RMK AO2
KGOP 241035Z AUTO 16006KT 10SM BKN029 18/16 A3005 RMK AO2
KGOP 241015Z AUTO 16005KT 10SM BKN028 OVC032 18/16 A3005 RMK AO2
KGOP 240955Z AUTO 15007KT 10SM BKN028 BKN032 18/16 A3005 RMK AO2
KGOP 240935Z AUTO 15007KT 10SM BKN026 19/16 A3006 RMK AO2
KGOP 240915Z AUTO 16006KT 10SM BKN028 19/16 A3006 RMK AO2
KGOP 240855Z AUTO 16005KT 10SM BKN031 18/16 A3005 RMK AO2
KGOP 240835Z AUTO 14008KT 10SM SCT021 SCT031 18/16 A3006 RMK AO2
KGOP 240815Z AUTO 14007KT 10SM BKN020 BKN028 19/16 A3006 RMK AO2
KGOP 240755Z AUTO 14005KT 10SM BKN018 BKN031 19/16 A3007 RMK AO2
KGOP 240735Z AUTO 16003KT 10SM BKN018 19/16 A3007 RMK AO2
KGOP 240715Z AUTO 16005KT 10SM BKN019 OVC031 19/16 A3007 RMK AO2
KGOP 240655Z AUTO 15006KT 10SM BKN019 BKN024 OVC031 19/16 A3007 RMK AO2
KGOP 240635Z AUTO 16009KT 10SM BKN019 OVC024 19/16 A3006 RMK AO2
KGOP 240610Z AUTO 15005KT 10SM OVC019 19/16 A3007 RMK AO2
KGOP 240555Z AUTO 14006KT 10SM OVC018 19/16 A3006 RMK AO2
KGOP 240535Z AUTO 14006KT 10SM OVC018 19/16 A3006 RMK AO2
KGOP 240515Z AUTO 14007KT 10SM OVC020 19/16 A3006 RMK AO2
KGOP 240455Z AUTO 14006KT 10SM SCT021 OVC028 19/16 A3005 RMK AO2
KGOP 240435Z AUTO 14007KT 10SM BKN026 19/16 A3005 RMK AO2
KGOP 240415Z AUTO 14005KT 10SM CLR 18/15 A3005 RMK AO2
KGOP 240355Z AUTO 15007KT 10SM CLR 19/15 A3005 RMK AO2
KGOP 240335Z AUTO 16006G12KT 10SM CLR 19/15 A3004 RMK AO2
KGOP 240315Z AUTO 16008G16KT 10SM CLR 19/16 A3003 RMK AO2
KGOP 240255Z AUTO 15010KT 10SM CLR 19/16 A3003 RMK AO2
KGOP 240235Z AUTO 15010KT 10SM CLR 20/16 A3003 RMK AO2
KGOP 240215Z AUTO 14009KT 10SM CLR 19/16 A3003 RMK AO2
KGOP 240155Z AUTO 14007KT 10SM CLR 19/15 A3003 RMK AO2
KGOP 240135Z AUTO 14007KT 10SM CLR 20/15 A3002 RMK AO2
KGOP 240115Z AUTO 15009G14KT 10SM FEW034 20/15 A3003 RMK AO2
KGOP 240055Z AUTO 15008G13KT 10SM SCT033 20/15 A3003 RMK AO2
KGOP 240035Z AUTO 15008G13KT 10SM BKN032 BKN040 21/15 A3004 RMK AO2
KGOP 240015Z AUTO 15008KT 10SM BKN033 BKN040 21/15 A3003 RMK AO2
KGOP 232355Z AUTO 16010KT 10SM FEW027 SCT035 BKN042 21/16 A3003 RMK AO2
KGOP 232335Z AUTO 16010KT 10SM CLR 22/16 A3002 RMK AO2
KGOP 232315Z AUTO 16010KT 10SM FEW034 FEW050 FEW065 21/16 A3002 RMK AO2
KGOP 232255Z AUTO 15008KT 10SM SCT031 SCT036 SCT050 21/16 A3002 RMK AO2
KGOP 232235Z AUTO 15010KT 10SM BKN030 BKN036 21/16 A3001 RMK AO2
KGOP 232215Z AUTO 16007KT 10SM BKN030 21/16 A3002 RMK AO2
KGOP 232155Z AUTO 17012G18KT 10SM BKN028 BKN033 21/15 A3002 RMK AO2
KGOP 232135Z AUTO 17012KT 10SM BKN030 BKN034 21/15 A3003 RMK AO2
KGOP 232115Z AUTO 17009KT 10SM OVC032 21/15 A3003 RMK AO2
KGOP 232055Z AUTO 17011KT 10SM OVC031 22/15 A3003 RMK AO2
KGOP 232035Z AUTO 16010G15KT 10SM BKN030 BKN120 21/15 A3004 RMK AO2
KGOP 232015Z AUTO 16010G17KT 10SM SCT023 BKN030 BKN055 21/15 A3005 RMK AO2
KGOP 231955Z AUTO 17013KT 10SM BKN023 21/15 A3005 RMK AO2
KGOP 231935Z AUTO 16009KT 10SM BKN023 20/15 A3006 RMK AO2
KGOP 231915Z AUTO 16007G12KT 10SM BKN023 20/15 A3007 RMK AO2
KGOP 231855Z AUTO 16009G14KT 10SM BKN023 20/15 A3007 RMK AO2
KGOP 231835Z AUTO 16009KT 10SM BKN021 20/15 A3008 RMK AO2
KGOP 231815Z AUTO 16009KT 10SM BKN021 BKN025 20/15 A3009 RMK AO2
KGOP 231755Z AUTO 15010KT 10SM BKN022 20/15 A3010 RMK AO2
KGOP 231735Z AUTO 15008KT 10SM BKN023 BKN032 20/15 A3011 RMK AO2
KGOP 231715Z AUTO 16011KT 10SM SCT022 SCT026 BKN036 20/14 A3011 RMK AO2
KGOP 231655Z AUTO 15010KT 10SM SCT021 BKN036 BKN044 20/14 A3011 RMK AO2
KGOP 231635Z AUTO 15010KT 10SM FEW017 FEW022 SCT029 19/14 A3011 RMK AO2
KGOP 231615Z AUTO 15007G13KT 10SM SCT017 SCT028 SCT037 18/14 A3011 RMK AO2
KGOP 231555Z AUTO 14011KT 10SM FEW018 FEW027 SCT047 18/14 A3011 RMK AO2
KGOP 231535Z AUTO 15010G15KT 10SM FEW017 SCT027 SCT032 17/13 A3010 RMK AO2
KGOP 231515Z AUTO 14008KT 10SM BKN017 BKN032 BKN039 17/13 A3010 RMK AO2
KGOP 231455Z AUTO 14007KT 10SM SCT016 BKN032 17/13 A3010 RMK AO2
KGOP 231435Z AUTO 13009KT 10SM OVC033 17/13 A3010 RMK AO2
KGOP 231415Z AUTO 14005KT 10SM OVC037 16/12 A3010 RMK AO2
KGOP 231355Z AUTO 14007KT 110V170 10SM BKN016 BKN040 16/12 A3009 RMK AO2
KGOP 231335Z AUTO 12003KT 10SM BKN016 16/12 A3009 RMK AO2
KGOP 231315Z AUTO 12003KT 10SM BKN018 15/12 A3009 RMK AO2
KGOP 231255Z AUTO 00000KT 10SM BKN019 OVC040 15/11 A3009 RMK AO2
KGOP 231235Z AUTO 00000KT 10SM BKN042 OVC049 15/11 A3008 RMK AO2
KGOP 231215Z AUTO 00000KT 10SM BKN047 BKN055 15/11 A3007 RMK AO2
KGOP 231155Z AUTO 00000KT 10SM FEW047 15/10 A3007 RMK AO2 LTG DSNT NE
KGOP 231135Z AUTO 00000KT 10SM FEW047 15/10 A3006 RMK AO2
KGOP 231115Z AUTO 15005KT 10SM FEW065 FEW110 15/10 A3005 RMK AO2 LTG DSNT NE AND SW
KGOP 231055Z AUTO 15004KT 10SM CLR 15/10 A3005 RMK AO2
KGOP 231035Z AUTO 00000KT 10SM CLR 15/09 A3004 RMK AO2
KGOP 231015Z AUTO 11004KT 10SM FEW065 15/09 A3003 RMK AO2
KGOP 230955Z AUTO 00000KT 10SM CLR 15/09 A3003 RMK AO2
KGOP 230935Z AUTO 14004KT 10SM CLR 16/09 A3003 RMK AO2